createdAt,value
2019-04-25T00:03:45.412Z,94897.91
2019-04-25T00:06:14.711Z,94893.23
2019-04-25T00:08:44.069Z,94889.34
2019-04-25T00:11:11.714Z,94884.16
2019-04-25T00:13:41.391Z,94883.52
2019-04-25T00:16:08.189Z,94883.30
2019-04-25T00:18:36.634Z,94885.70
2019-04-25T00:21:05.188Z,94886.01
2019-04-25T00:23:33.519Z,94886.02
2019-04-25T00:31:12.306Z,94894.52
2019-04-25T00:33:41.356Z,94897.91
2019-04-25T00:36:09.063Z,94897.31
2019-04-25T00:38:37.392Z,94896.96
2019-04-25T00:41:05.720Z,94906.27
2019-04-25T00:43:34.044Z,94909.83
2019-04-25T00:46:02.446Z,94906.28
2019-04-25T00:48:31.710Z,94908.95
2019-04-25T00:50:59.324Z,94906.70
2019-04-25T00:53:27.700Z,94899.63
2019-04-25T00:55:56.035Z,94903.00
2019-04-25T00:58:26.516Z,94905.20
2019-04-25T01:03:31.675Z,94904.67
2019-04-25T01:05:59.364Z,94902.06
2019-04-25T01:16:12.015Z,94880.13
2019-04-25T01:18:39.687Z,94886.08
2019-04-25T01:21:08.062Z,94896.95
2019-04-25T01:23:36.388Z,94897.22
2019-04-25T01:26:04.841Z,94882.66
2019-04-25T01:28:33.574Z,94882.09
2019-04-25T01:31:01.569Z,94886.97
2019-04-25T01:36:04.225Z,94878.98
2019-04-25T01:41:06.788Z,94879.12
2019-04-25T01:43:48.433Z,94882.05
2019-04-25T01:46:15.265Z,94884.94
2019-04-25T01:48:43.619Z,94882.09
2019-04-25T01:51:11.993Z,94884.12
2019-04-25T01:53:41.411Z,94888.89
2019-04-25T01:56:09.822Z,94879.13
2019-04-25T02:01:14.392Z,94873.55
2019-04-25T02:06:16.743Z,94877.00
2019-04-25T02:08:45.116Z,94890.86
2019-04-25T02:11:19.518Z,94890.27
2019-04-25T02:13:47.866Z,94888.19
2019-04-25T02:16:16.217Z,94886.61
2019-04-25T02:18:45.510Z,94878.98
2019-04-25T02:21:13.871Z,94882.15
2019-04-25T02:23:44.041Z,94877.44
2019-04-25T02:26:15.946Z,94885.11
2019-04-25T02:28:39.021Z,94890.60
2019-04-25T02:31:08.771Z,94893.39
2019-04-25T02:33:35.670Z,94892.93
2019-04-25T02:36:08.586Z,94890.55
2019-04-25T02:38:34.249Z,94893.91
2019-04-25T02:41:02.802Z,94891.45
2019-04-25T02:43:30.175Z,94888.14
2019-04-25T02:46:07.455Z,94889.91
2019-04-25T02:48:37.738Z,94888.31
2019-04-25T02:54:01.795Z,94883.18
2019-04-25T02:56:34.457Z,94883.03
2019-04-25T02:58:58.342Z,94876.36
2019-04-25T03:01:26.459Z,94879.45
2019-04-25T03:03:54.766Z,94873.77
2019-04-25T03:06:25.008Z,94871.00
2019-04-25T03:08:54.062Z,94879.80
2019-04-25T03:11:19.920Z,94882.89
2019-04-25T03:13:48.525Z,94884.13
2019-04-25T03:16:16.918Z,94874.34
2019-04-25T03:18:46.281Z,94876.63
2019-04-25T03:24:05.904Z,94881.72
2019-04-25T03:26:39.739Z,94871.57
2019-04-25T03:28:59.782Z,94878.15
2019-04-25T03:34:05.752Z,94868.84
2019-04-25T03:36:30.701Z,94872.50
2019-04-25T03:38:59.070Z,94879.73
2019-04-25T03:41:27.401Z,94876.97
2019-04-25T03:43:55.743Z,94876.88
2019-04-25T03:46:24.086Z,94876.91
2019-04-25T03:48:53.863Z,94880.02
2019-04-25T03:51:20.777Z,94883.09
2019-04-25T03:53:49.144Z,94883.69
2019-04-25T03:56:17.470Z,94880.83
2019-04-25T04:01:24.514Z,94874.14
2019-04-25T04:03:51.505Z,94875.45
2019-04-25T04:06:20.900Z,94876.73
2019-04-25T04:08:49.294Z,94878.83
2019-04-25T04:11:18.113Z,94878.81
2019-04-25T04:13:46.450Z,94883.63
2019-04-25T04:16:15.695Z,94880.47
2019-04-25T04:18:44.253Z,94878.37
2019-04-25T04:21:17.436Z,94876.39
2019-04-25T04:23:44.953Z,94877.28
2019-04-25T04:26:13.688Z,94878.14
2019-04-25T04:28:41.665Z,94881.84
2019-04-25T04:31:10.229Z,94873.98
2019-04-25T04:33:38.353Z,94884.87
2019-04-25T04:36:07.411Z,94884.03
2019-04-25T04:38:35.089Z,94882.64
2019-04-25T04:41:03.975Z,94885.44
2019-04-25T04:48:40.319Z,94887.39
2019-04-25T04:51:10.476Z,94884.08
2019-04-25T04:53:37.907Z,94884.53
2019-04-25T04:56:06.315Z,94889.38
2019-04-25T04:58:34.670Z,94890.80
2019-04-25T05:01:03.672Z,94887.91
2019-04-25T05:03:34.298Z,94889.75
2019-04-25T05:06:04.212Z,94892.01
2019-04-25T05:08:47.432Z,94892.06
2019-04-25T05:11:16.936Z,94895.23
2019-04-25T05:13:44.139Z,94896.45
2019-04-25T05:16:15.350Z,94903.00
2019-04-25T05:18:43.836Z,94900.84
2019-04-25T05:21:13.280Z,94911.19
2019-04-25T05:23:40.512Z,94906.86
2019-04-25T05:26:08.951Z,94909.98
2019-04-25T05:28:37.834Z,94899.23
2019-04-25T05:31:08.630Z,94895.69
2019-04-25T05:33:37.015Z,94897.17
2019-04-25T05:36:05.968Z,94894.09
2019-04-25T05:38:33.769Z,94890.31
2019-04-25T05:41:04.149Z,94891.88
2019-04-25T05:46:06.811Z,94895.78
2019-04-25T05:48:35.183Z,94896.58
2019-04-25T05:51:03.993Z,94892.11
2019-04-25T05:53:33.328Z,94893.84
2019-04-25T05:56:00.371Z,94892.91
2019-04-25T06:03:37.160Z,94893.61
2019-04-25T06:06:05.511Z,94892.40
2019-04-25T06:08:34.159Z,94896.31
2019-04-25T06:11:04.042Z,94893.91
2019-04-25T06:13:34.815Z,94895.72
2019-04-25T06:16:03.591Z,94885.78
2019-04-25T06:18:38.581Z,94889.46
2019-04-25T06:21:06.938Z,94888.13
2019-04-25T06:23:45.802Z,94885.79
2019-04-25T06:26:22.551Z,94890.56
2019-04-25T06:28:51.968Z,94883.38
2019-04-25T06:31:13.675Z,94885.19
2019-04-25T06:33:41.399Z,94885.38
2019-04-25T06:36:09.677Z,94887.36
2019-04-25T06:38:41.024Z,94889.59
2019-04-25T06:41:09.414Z,94889.07
2019-04-25T06:46:20.207Z,94879.12
2019-04-25T06:48:50.180Z,94885.95
2019-04-25T06:51:18.528Z,94881.45
2019-04-25T06:53:46.884Z,94879.39
2019-04-25T07:01:26.712Z,94871.88
2019-04-25T07:06:29.177Z,94874.80
2019-04-25T07:11:34.901Z,94871.76
2019-04-25T07:14:01.799Z,94869.56
2019-04-25T07:16:30.158Z,94867.09
2019-04-25T07:18:58.498Z,94864.27
2019-04-25T07:21:26.846Z,94858.98
2019-04-25T07:26:30.338Z,94860.58
2019-04-25T07:29:00.733Z,94859.28
2019-04-25T07:31:33.456Z,94856.13
2019-04-25T07:34:00.320Z,94854.65
2019-04-25T07:36:29.622Z,94857.13
2019-04-25T07:41:32.320Z,94852.05
2019-04-25T07:46:38.588Z,94851.38
2019-04-25T07:51:37.561Z,94847.90
2019-04-25T07:54:05.910Z,94841.67
2019-04-25T07:56:35.238Z,94835.92
2019-04-25T07:59:03.834Z,94830.95
2019-04-25T08:01:31.110Z,94829.30
2019-04-25T08:04:00.277Z,94826.98
2019-04-25T08:06:31.270Z,94830.59
2019-04-25T08:08:58.945Z,94826.18
2019-04-25T08:11:28.050Z,94827.70
2019-04-25T08:16:34.826Z,94831.93
2019-04-25T08:19:03.961Z,94829.36
2019-04-25T08:21:32.570Z,94818.06
2019-04-25T08:24:00.396Z,94822.73
2019-04-25T08:26:29.546Z,94824.43
2019-04-25T08:28:58.170Z,94827.01
2019-04-25T08:31:26.469Z,94822.06
2019-04-25T08:33:55.826Z,94818.80
2019-04-25T08:36:24.194Z,94821.74
2019-04-25T08:38:53.499Z,94816.70
2019-04-25T08:41:21.684Z,94813.78
2019-04-25T08:43:49.729Z,94817.91
2019-04-25T08:48:57.976Z,94804.73
2019-04-25T08:54:03.815Z,94807.06
2019-04-25T08:56:32.528Z,94799.42
2019-04-25T08:59:06.158Z,94790.33
2019-04-25T09:07:03.390Z,94795.73
2019-04-25T09:09:30.224Z,94794.97
2019-04-25T09:11:58.667Z,94800.30
2019-04-25T09:14:27.026Z,94807.39
2019-04-25T09:16:55.604Z,94796.95
2019-04-25T09:19:24.214Z,94789.50
2019-04-25T09:21:53.369Z,94799.23
2019-04-25T09:24:20.956Z,94796.91
2019-04-25T09:26:49.395Z,94793.86
2019-04-25T09:29:19.953Z,94794.92
2019-04-25T09:31:46.155Z,94793.11
2019-04-25T09:34:14.458Z,94792.23
2019-04-25T09:36:43.970Z,94789.45
2019-04-25T09:39:16.725Z,94790.88
2019-04-25T09:41:45.087Z,94786.16
2019-04-25T09:46:49.826Z,94796.19
2019-04-25T09:49:21.648Z,94790.80
2019-04-25T09:51:50.006Z,94789.30
2019-04-25T09:54:18.340Z,94776.06
2019-04-25T09:56:47.560Z,94780.50
2019-04-25T09:59:26.795Z,94775.92
2019-04-25T10:01:44.898Z,94778.39
2019-04-25T10:04:12.636Z,94772.06
2019-04-25T10:06:40.984Z,94769.88
2019-04-25T10:11:46.527Z,94760.84
2019-04-25T10:17:10.989Z,94767.97
2019-04-25T10:19:41.175Z,94760.48
2019-04-25T10:24:43.220Z,94753.42
2019-04-25T10:29:50.938Z,94736.61
2019-04-25T10:32:15.138Z,94732.57
2019-04-25T10:34:45.180Z,94732.84
2019-04-25T10:37:13.696Z,94732.29
2019-04-25T10:42:14.871Z,94732.70
2019-04-25T10:44:45.787Z,94728.88
2019-04-25T10:47:12.550Z,94729.56
2019-04-25T10:49:40.949Z,94731.48
2019-04-25T10:52:10.351Z,94724.55
2019-04-25T10:54:39.726Z,94723.05
2019-04-25T10:57:07.098Z,94721.38
2019-04-25T10:59:35.509Z,94730.93
2019-04-25T11:04:39.666Z,94735.89
2019-04-25T11:09:43.172Z,94722.14
2019-04-25T11:12:09.609Z,94724.81
2019-04-25T11:14:37.950Z,94728.20
2019-04-25T11:17:06.318Z,94718.55
2019-04-25T11:19:37.184Z,94715.08
2019-04-25T11:22:05.181Z,94715.58
2019-04-25T11:24:34.290Z,94720.09
2019-04-25T11:27:04.324Z,94718.84
2019-04-25T11:29:31.328Z,94709.91
2019-04-25T11:31:59.710Z,94702.25
2019-04-25T11:37:07.488Z,94693.73
2019-04-25T11:39:35.832Z,94704.30
2019-04-25T11:42:05.126Z,94704.13
2019-04-25T11:44:34.960Z,94700.89
2019-04-25T11:47:03.900Z,94702.03
2019-04-25T11:49:33.939Z,94703.32
2019-04-25T11:52:00.378Z,94713.84
2019-04-25T11:54:28.737Z,94699.87
2019-04-25T11:59:44.594Z,94707.14
2019-04-25T12:02:10.980Z,94712.67
2019-04-25T12:04:39.326Z,94707.17
2019-04-25T12:07:08.620Z,94705.50
2019-04-25T12:09:37.006Z,94708.57
2019-04-25T12:12:05.709Z,94709.19
2019-04-25T12:14:34.135Z,94707.05
2019-04-25T12:17:03.771Z,94701.22
2019-04-25T12:19:35.693Z,94707.55
2019-04-25T12:22:00.723Z,94705.27
2019-04-25T12:27:04.367Z,94709.60
2019-04-25T12:36:30.905Z,94716.55
2019-04-25T12:38:59.247Z,94708.59
2019-04-25T12:41:27.684Z,94710.20
2019-04-25T12:46:51.405Z,94708.95
2019-04-25T12:49:19.754Z,94709.02
2019-04-25T12:51:49.808Z,94701.64
2019-04-25T12:54:17.445Z,94704.30
2019-04-25T12:56:47.382Z,94700.49
2019-04-25T12:59:14.252Z,94704.41
2019-04-25T13:04:16.998Z,94691.44
2019-04-25T13:06:45.355Z,94691.77
2019-04-25T13:09:13.767Z,94698.26
2019-04-25T13:11:43.477Z,94692.67
2019-04-25T13:14:10.469Z,94694.09
2019-04-25T13:16:39.728Z,94688.47
2019-04-25T13:21:43.200Z,94688.73
2019-04-25T13:24:10.509Z,94688.48
2019-04-25T13:26:38.329Z,94688.63
2019-04-25T13:29:09.894Z,94687.57
2019-04-25T13:36:50.972Z,94681.50
2019-04-25T13:39:19.329Z,94683.52
2019-04-25T13:44:22.039Z,94675.38
2019-04-25T13:46:50.415Z,94670.20
2019-04-25T13:51:53.233Z,94668.48
2019-04-25T13:54:22.238Z,94654.58
2019-04-25T13:56:50.023Z,94657.19
2019-04-25T13:59:18.488Z,94651.08
2019-04-25T14:01:46.830Z,94648.02
2019-04-25T14:04:15.211Z,94644.61
2019-04-25T14:06:43.744Z,94648.02
2019-04-25T14:09:13.307Z,94653.03
2019-04-25T14:11:40.441Z,94646.34
2019-04-25T14:19:39.226Z,94648.11
2019-04-25T14:22:07.908Z,94638.98
2019-04-25T14:24:36.340Z,94638.66
2019-04-25T14:29:39.088Z,94637.91
2019-04-25T14:32:07.439Z,94634.69
2019-04-25T14:34:36.916Z,94636.48
2019-04-25T14:37:05.289Z,94634.95
2019-04-25T14:39:33.730Z,94640.30
2019-04-25T14:44:38.475Z,94635.39
2019-04-25T14:47:06.891Z,94639.58
2019-04-25T14:49:35.284Z,94634.72
2019-04-25T14:52:03.779Z,94629.27
2019-04-25T14:57:07.355Z,94638.31
2019-04-25T14:59:35.874Z,94633.82
2019-04-25T15:02:04.245Z,94633.40
2019-04-25T15:04:33.134Z,94629.21
2019-04-25T15:07:01.008Z,94628.44
2019-04-25T15:12:03.721Z,94634.31
2019-04-25T15:14:32.069Z,94627.61
2019-04-25T15:17:00.446Z,94630.00
2019-04-25T15:19:29.498Z,94625.23
2019-04-25T15:21:57.376Z,94632.65
2019-04-25T15:24:25.753Z,94627.63
2019-04-25T15:26:54.150Z,94626.59
2019-04-25T15:29:22.675Z,94620.93
2019-04-25T15:31:56.177Z,94619.02
2019-04-25T15:34:19.376Z,94621.39
2019-04-25T15:36:51.266Z,94618.96
2019-04-25T15:42:19.349Z,94617.52
2019-04-25T15:44:51.628Z,94610.08
2019-04-25T15:47:19.984Z,94609.03
2019-04-25T15:49:48.424Z,94603.13
2019-04-25T15:52:16.788Z,94603.05
2019-04-25T15:54:47.072Z,94608.98
2019-04-25T15:57:15.468Z,94602.45
2019-04-25T15:59:43.841Z,94602.39
2019-04-25T16:02:12.186Z,94605.52
2019-04-25T16:04:40.552Z,94601.91
2019-04-25T16:07:08.941Z,94606.48
2019-04-25T16:09:37.357Z,94602.49
2019-04-25T16:12:06.768Z,94595.42
2019-04-25T16:14:36.293Z,94595.61
2019-04-25T16:19:39.007Z,94598.70
2019-04-25T16:22:07.504Z,94603.17
2019-04-25T16:24:36.656Z,94598.80
2019-04-25T16:27:04.238Z,94594.56
2019-04-25T16:29:33.577Z,94604.74
2019-04-25T16:32:01.941Z,94601.52
2019-04-25T16:34:30.792Z,94606.78
2019-04-25T16:36:58.757Z,94598.39
2019-04-25T16:39:27.115Z,94599.05
2019-04-25T16:41:55.513Z,94592.13
2019-04-25T16:44:23.886Z,94597.02
2019-04-25T16:46:53.092Z,94598.36
2019-04-25T16:49:21.534Z,94593.12
2019-04-25T16:51:49.946Z,94597.48
2019-04-25T16:54:18.333Z,94593.19
2019-04-25T16:56:46.901Z,94586.39
2019-04-25T16:59:15.291Z,94589.02
2019-04-25T17:01:43.657Z,94588.97
2019-04-25T17:06:46.269Z,94591.41
2019-04-25T17:09:14.640Z,94589.98
2019-04-25T17:11:44.088Z,94593.30
2019-04-25T17:22:26.005Z,94591.27
2019-04-25T17:24:55.388Z,94593.34
2019-04-25T17:27:23.752Z,94596.83
2019-04-25T17:37:54.854Z,94597.22
2019-04-25T17:40:23.192Z,94598.04
2019-04-25T17:42:51.539Z,94602.91
2019-04-25T17:45:21.221Z,94600.94
2019-04-25T17:50:23.853Z,94604.20
2019-04-25T17:52:52.212Z,94600.41
2019-04-25T17:57:55.193Z,94601.91
2019-04-25T18:00:38.409Z,94601.13
2019-04-25T18:03:06.776Z,94601.70
2019-04-25T18:05:35.257Z,94604.69
2019-04-25T18:08:04.537Z,94606.59
2019-04-25T18:10:34.197Z,94606.02
2019-04-25T18:13:01.244Z,94604.53
2019-04-25T18:15:32.068Z,94603.77
2019-04-25T18:18:00.402Z,94607.98
2019-04-25T18:20:28.757Z,94605.31
2019-04-25T18:22:57.882Z,94594.89
2019-04-25T18:31:05.876Z,94593.89
2019-04-25T18:33:34.913Z,94593.80
2019-04-25T18:36:07.092Z,94595.25
2019-04-25T18:38:36.099Z,94593.30
2019-04-25T18:41:10.293Z,94595.57
2019-04-25T18:43:42.681Z,94599.50
2019-04-25T18:46:16.576Z,94605.06
2019-04-25T18:51:19.178Z,94612.25
2019-04-25T19:02:26.462Z,94608.55
2019-04-25T19:04:54.817Z,94615.83
2019-04-25T19:09:57.474Z,94616.84
2019-04-25T19:12:25.889Z,94625.25
2019-04-25T19:14:54.295Z,94625.02
2019-04-25T19:17:22.660Z,94621.72
2019-04-25T19:19:51.899Z,94621.19
2019-04-25T19:22:19.337Z,94622.27
2019-04-25T19:24:48.631Z,94620.95
2019-04-25T19:27:23.495Z,94619.61
2019-04-25T19:29:45.922Z,94627.89
2019-04-25T19:32:13.766Z,94633.82
2019-04-25T19:34:42.554Z,94636.03
2019-04-25T19:37:10.537Z,94634.96
2019-04-25T19:39:38.887Z,94639.42
2019-04-25T19:42:17.133Z,94646.80
2019-04-25T19:49:55.097Z,94650.03
2019-04-25T19:52:23.451Z,94651.50
2019-04-25T19:54:52.011Z,94653.69
2019-04-25T19:59:54.541Z,94653.57
2019-04-25T20:02:25.849Z,94658.85
2019-04-25T20:10:06.300Z,94664.14
2019-04-25T20:12:41.112Z,94667.16
2019-04-25T20:17:44.828Z,94664.36
2019-04-25T20:20:12.193Z,94665.11
2019-04-25T20:22:40.622Z,94670.73
2019-04-25T20:27:46.705Z,94669.08
2019-04-25T20:30:14.744Z,94670.75
2019-04-25T20:32:43.129Z,94665.49
2019-04-25T20:35:11.636Z,94662.16
2019-04-25T20:37:39.996Z,94666.83
2019-04-25T20:40:08.376Z,94665.77
2019-04-25T20:42:36.881Z,94667.88
2019-04-25T20:45:05.216Z,94665.05
2019-04-25T20:47:33.587Z,94664.75
2019-04-25T20:50:01.921Z,94667.16
2019-04-25T20:52:30.823Z,94674.27
2019-04-25T20:54:59.226Z,94673.32
2019-04-25T21:02:36.334Z,94670.77
2019-04-25T21:05:04.661Z,94663.98
2019-04-25T21:07:33.041Z,94665.06
2019-04-25T21:10:02.739Z,94660.75
2019-04-25T21:17:42.398Z,94666.31
2019-04-25T21:20:10.789Z,94660.56
2019-04-25T21:27:50.174Z,94650.19
2019-04-25T21:30:18.186Z,94659.27
2019-04-25T21:32:50.882Z,94650.54
2019-04-25T21:35:19.264Z,94650.59
2019-04-25T21:37:47.980Z,94658.19
2019-04-25T21:40:20.643Z,94662.91
2019-04-25T21:45:23.636Z,94659.06
2019-04-25T21:47:53.929Z,94654.55
2019-04-25T21:50:21.292Z,94652.64
2019-04-25T21:52:49.739Z,94654.72
2019-04-25T21:55:18.070Z,94651.20
2019-04-25T21:57:46.518Z,94650.98
2019-04-25T22:00:14.831Z,94650.84
2019-04-25T22:02:43.179Z,94644.86
2019-04-25T22:05:11.542Z,94651.22
2019-04-25T22:10:14.119Z,94644.47
2019-04-25T22:12:42.504Z,94644.33
2019-04-25T22:15:10.918Z,94644.68
2019-04-25T22:17:39.297Z,94645.50
2019-04-25T22:22:45.507Z,94643.06
2019-04-25T22:27:48.096Z,94641.28
2019-04-25T22:30:16.489Z,94642.66
2019-04-25T22:35:42.444Z,94640.87
2019-04-25T22:38:10.817Z,94645.87
2019-04-25T22:40:39.155Z,94646.26
2019-04-25T22:43:07.829Z,94640.58
2019-04-25T22:45:35.856Z,94637.34
2019-04-25T22:48:04.674Z,94636.34
2019-04-25T22:50:32.980Z,94645.59
2019-04-25T22:53:02.062Z,94640.63
2019-04-25T22:55:29.875Z,94642.22
2019-04-25T22:57:58.521Z,94637.70
2019-04-25T23:00:27.341Z,94630.13
2019-04-25T23:02:56.026Z,94629.81
2019-04-25T23:05:34.320Z,94634.58
2019-04-25T23:08:03.076Z,94636.09
2019-04-25T23:10:31.031Z,94629.41
2019-04-25T23:15:36.650Z,94628.09
2019-04-25T23:18:05.362Z,94618.16
2019-04-25T23:20:33.424Z,94636.66
2019-04-25T23:23:01.782Z,94627.16
2019-04-25T23:30:38.791Z,94630.41
2019-04-25T23:33:07.172Z,94629.67
2019-04-25T23:35:35.512Z,94626.56
2019-04-25T23:38:05.738Z,94623.38
2019-04-25T23:40:33.363Z,94623.73
2019-04-25T23:43:01.770Z,94623.82
2019-04-25T23:45:30.101Z,94618.34
2019-04-25T23:47:58.507Z,94614.31
2019-04-25T23:50:26.839Z,94614.03
2019-04-25T23:52:56.199Z,94617.31
2019-04-25T23:55:24.524Z,94619.20
2019-04-25T23:57:52.906Z,94611.49
